sensor_id;sensor_type;location;lat;lon;timestamp;pressure;altitude;pressure_sealevel;temperature;humidity
29331;BME280;16331;52.528;13.342;2022-09-29T00:02:18;158491.34;;;10.12;100.00
29331;BME280;16331;52.528;13.342;2022-09-29T00:04:44;158505.06;;;10.17;100.00
29331;BME280;16331;52.528;13.342;2022-09-29T00:07:10;158487.25;;;10.10;100.00
29331;BME280;16331;52.528;13.342;2022-09-29T00:09:36;158448.81;;;9.96;100.00
29331;BME280;16331;52.528;13.342;2022-09-29T00:12:02;158429.59;;;9.89;100.00
29331;BME280;16331;52.528;13.342;2022-09-29T00:14:28;158413.16;;;9.83;100.00
29331;BME280;16331;52.528;13.342;2022-09-29T00:16:54;158411.75;;;9.83;100.00
29331;BME280;16331;52.528;13.342;2022-09-29T00:19:21;158433.69;;;9.91;100.00
29331;BME280;16331;52.528;13.342;2022-09-29T00:21:47;158450.19;;;9.97;100.00
29331;BME280;16331;52.528;13.342;2022-09-29T00:24:13;158450.19;;;9.97;100.00
29331;BME280;16331;52.528;13.342;2022-09-29T00:26:39;158498.25;;;10.14;100.00
29331;BME280;16331;52.528;13.342;2022-09-29T00:29:06;158488.63;;;10.11;100.00
29331;BME280;16331;52.528;13.342;2022-09-29T00:31:33;158513.28;;;10.20;100.00
29331;BME280;16331;52.528;13.342;2022-09-29T00:33:59;158520.19;;;10.23;100.00
29331;BME280;16331;52.528;13.342;2022-09-29T00:36:25;158518.78;;;10.22;100.00
29331;BME280;16331;52.528;13.342;2022-09-29T00:38:56;158499.56;;;10.15;100.00
29331;BME280;16331;52.528;13.342;2022-09-29T00:41:25;158532.50;;;10.27;100.00
29331;BME280;16331;52.528;13.342;2022-09-29T00:43:53;158527.03;;;10.25;100.00
29331;BME280;16331;52.528;13.342;2022-09-29T00:46:34;158518.78;;;10.22;100.00
29331;BME280;16331;52.528;13.342;2022-09-29T00:49:22;158527.03;;;10.25;100.00
29331;BME280;16331;52.528;13.342;2022-09-29T00:51:58;158562.69;;;10.38;100.00
29331;BME280;16331;52.528;13.342;2022-09-29T00:54:26;158602.47;;;10.53;100.00
29331;BME280;16331;52.528;13.342;2022-09-29T00:56:56;158623.03;;;10.60;100.00
29331;BME280;16331;52.528;13.342;2022-09-29T00:59:30;158584.63;;;10.46;100.00
29331;BME280;16331;52.528;13.342;2022-09-29T01:01:58;158565.41;;;10.39;100.00
29331;BME280;16331;52.528;13.342;2022-09-29T01:04:25;158562.69;;;10.38;100.00
29331;BME280;16331;52.528;13.342;2022-09-29T01:06:56;158558.56;;;10.37;100.00
29331;BME280;16331;52.528;13.342;2022-09-29T01:09:32;158606.59;;;10.54;100.00
29331;BME280;16331;52.528;13.342;2022-09-29T01:12:01;158555.78;;;10.36;100.00
29331;BME280;16331;52.528;13.342;2022-09-29T01:14:29;158557.19;;;10.36;100.00
29331;BME280;16331;52.528;13.342;2022-09-29T01:16:59;158535.25;;;10.28;100.00
29331;BME280;16331;52.528;13.342;2022-09-29T01:22:33;158559.97;;;10.37;100.00
29331;BME280;16331;52.528;13.342;2022-09-29T01:30:39;158588.75;;;10.48;100.00
29331;BME280;16331;52.528;13.342;2022-09-29T01:36:13;158591.47;;;10.49;100.00
29331;BME280;16331;52.528;13.342;2022-09-29T01:38:53;158625.75;;;10.61;100.00
29331;BME280;16331;52.528;13.342;2022-09-29T01:41:35;158607.97;;;10.55;100.00
29331;BME280;16331;52.528;13.342;2022-09-29T01:44:23;158561.28;;;10.38;100.00
29331;BME280;16331;52.528;13.342;2022-09-29T01:47:01;158540.75;;;10.30;100.00
29331;BME280;16331;52.528;13.342;2022-09-29T01:49:31;158562.69;;;10.38;100.00
29331;BME280;16331;52.528;13.342;2022-09-29T01:52:13;158596.97;;;10.51;100.00
29331;BME280;16331;52.528;13.342;2022-09-29T01:54:46;158559.97;;;10.37;100.00
29331;BME280;16331;52.528;13.342;2022-09-29T01:57:18;158565.41;;;10.39;100.00
29331;BME280;16331;52.528;13.342;2022-09-29T02:02:44;158546.25;;;10.32;100.00
29331;BME280;16331;52.528;13.342;2022-09-29T02:05:24;158606.59;;;10.54;100.00
29331;BME280;16331;52.528;13.342;2022-09-29T02:07:54;158598.34;;;10.51;100.00
29331;BME280;16331;52.528;13.342;2022-09-29T02:10:35;158601.09;;;10.52;100.00
29331;BME280;16331;52.528;13.342;2022-09-29T02:13:05;158601.09;;;10.52;100.00
29331;BME280;16331;52.528;13.342;2022-09-29T02:15:35;158584.63;;;10.46;100.00
29331;BME280;16331;52.528;13.342;2022-09-29T02:18:21;158577.75;;;10.44;100.00
29331;BME280;16331;52.528;13.342;2022-09-29T02:20:48;158572.28;;;10.42;100.00
29331;BME280;16331;52.528;13.342;2022-09-29T02:23:15;158572.28;;;10.42;100.00
29331;BME280;16331;52.528;13.342;2022-09-29T02:25:41;158559.97;;;10.37;100.00
29331;BME280;16331;52.528;13.342;2022-09-29T02:28:10;158566.78;;;10.40;100.00
29331;BME280;16331;52.528;13.342;2022-09-29T02:30:38;158559.97;;;10.37;100.00
29331;BME280;16331;52.528;13.342;2022-09-29T02:33:04;158543.47;;;10.31;100.00
29331;BME280;16331;52.528;13.342;2022-09-29T02:35:53;158609.31;;;10.55;100.00
29331;BME280;16331;52.528;13.342;2022-09-29T02:38:40;158594.25;;;10.50;100.00
29331;BME280;16331;52.528;13.342;2022-09-29T02:41:54;158617.53;;;10.58;100.00
29331;BME280;16331;52.528;13.342;2022-09-29T02:44:39;158623.03;;;10.60;100.00
29331;BME280;16331;52.528;13.342;2022-09-29T02:50:41;158594.25;;;10.50;100.00
29331;BME280;16331;52.528;13.342;2022-09-29T02:56:35;158562.69;;;10.38;100.00
29331;BME280;16331;52.528;13.342;2022-09-29T02:59:07;158557.19;;;10.36;100.00
29331;BME280;16331;52.528;13.342;2022-09-29T03:01:39;158580.53;;;10.45;100.00
29331;BME280;16331;52.528;13.342;2022-09-29T03:04:11;158587.34;;;10.47;100.00
29331;BME280;16331;52.528;13.342;2022-09-29T03:06:37;158592.84;;;10.49;100.00
29331;BME280;16331;52.528;13.342;2022-09-29T03:09:03;158616.19;;;10.58;100.00
29331;BME280;16331;52.528;13.342;2022-09-29T03:11:29;158568.19;;;10.40;100.00
29331;BME280;16331;52.528;13.342;2022-09-29T03:13:55;158591.47;;;10.49;100.00
29331;BME280;16331;52.528;13.342;2022-09-29T03:16:21;158575.03;;;10.43;100.00
29331;BME280;16331;52.528;13.342;2022-09-29T03:18:47;158577.75;;;10.44;100.00
29331;BME280;16331;52.528;13.342;2022-09-29T03:21:25;158531.13;;;10.27;100.00
29331;BME280;16331;52.528;13.342;2022-09-29T03:23:55;158575.03;;;10.43;100.00
29331;BME280;16331;52.528;13.342;2022-09-29T03:26:24;158543.47;;;10.31;100.00
29331;BME280;16331;52.528;13.342;2022-09-29T03:28:55;158566.78;;;10.40;100.00
29331;BME280;16331;52.528;13.342;2022-09-29T03:31:25;158596.97;;;10.51;100.00
29331;BME280;16331;52.528;13.342;2022-09-29T03:33:54;158643.59;;;10.68;100.00
29331;BME280;16331;52.528;13.342;2022-09-29T03:36:21;158654.59;;;10.72;100.00
29331;BME280;16331;52.528;13.342;2022-09-29T03:38:47;158573.63;;;10.42;100.00
29331;BME280;16331;52.528;13.342;2022-09-29T03:41:13;158570.91;;;10.41;100.00
29331;BME280;16331;52.528;13.342;2022-09-29T03:43:41;158539.34;;;10.30;100.00
29331;BME280;16331;52.528;13.342;2022-09-29T03:46:08;158513.28;;;10.20;100.00
29331;BME280;16331;52.528;13.342;2022-09-29T03:48:34;158507.78;;;10.18;100.00
29331;BME280;16331;52.528;13.342;2022-09-29T03:51:00;158533.91;;;10.28;100.00
29331;BME280;16331;52.528;13.342;2022-09-29T03:53:26;158548.97;;;10.33;100.00
29331;BME280;16331;52.528;13.342;2022-09-29T03:55:54;158536.63;;;10.29;100.00
29331;BME280;16331;52.528;13.342;2022-09-29T03:58:20;158513.28;;;10.20;100.00
29331;BME280;16331;52.528;13.342;2022-09-29T04:00:47;158566.78;;;10.40;100.00
29331;BME280;16331;52.528;13.342;2022-09-29T04:03:14;158587.34;;;10.47;100.00
29331;BME280;16331;52.528;13.342;2022-09-29T04:05:40;158565.41;;;10.39;100.00
29331;BME280;16331;52.528;13.342;2022-09-29T04:08:07;158547.56;;;10.33;100.00
29331;BME280;16331;52.528;13.342;2022-09-29T04:10:35;158623.03;;;10.60;100.00
29331;BME280;16331;52.528;13.342;2022-09-29T04:13:01;158621.66;;;10.60;100.00
29331;BME280;16331;52.528;13.342;2022-09-29T04:15:27;158599.69;;;10.52;100.00
29331;BME280;16331;52.528;13.342;2022-09-29T04:17:57;158595.59;;;10.50;100.00
29331;BME280;16331;52.528;13.342;2022-09-29T04:20:32;158516.06;;;10.21;100.00
29331;BME280;16331;52.528;13.342;2022-09-29T04:23:00;158590.13;;;10.48;100.00
29331;BME280;16331;52.528;13.342;2022-09-29T04:25:29;158592.84;;;10.49;100.00
29331;BME280;16331;52.528;13.342;2022-09-29T04:27:55;158559.97;;;10.37;100.00
29331;BME280;16331;52.528;13.342;2022-09-29T04:30:21;158586.03;;;10.47;100.00
29331;BME280;16331;52.528;13.342;2022-09-29T04:32:47;158573.63;;;10.42;100.00
29331;BME280;16331;52.528;13.342;2022-09-29T04:35:20;158540.75;;;10.30;100.00
29331;BME280;16331;52.528;13.342;2022-09-29T04:37:54;158521.53;;;10.23;100.00
29331;BME280;16331;52.528;13.342;2022-09-29T04:40:22;158533.91;;;10.28;100.00
29331;BME280;16331;52.528;13.342;2022-09-29T04:42:50;158540.75;;;10.30;100.00
29331;BME280;16331;52.528;13.342;2022-09-29T04:45:16;158510.56;;;10.19;100.00
29331;BME280;16331;52.528;13.342;2022-09-29T04:47:42;158531.13;;;10.27;100.00
29331;BME280;16331;52.528;13.342;2022-09-29T04:50:11;158513.28;;;10.20;100.00
29331;BME280;16331;52.528;13.342;2022-09-29T04:52:43;158638.16;;;10.66;100.00
29331;BME280;16331;52.528;13.342;2022-09-29T04:55:21;158636.75;;;10.65;100.00
29331;BME280;16331;52.528;13.342;2022-09-29T04:57:51;158594.25;;;10.50;100.00
29331;BME280;16331;52.528;13.342;2022-09-29T05:00:17;158570.91;;;10.41;100.00
29331;BME280;16331;52.528;13.342;2022-09-29T05:02:44;158573.63;;;10.42;100.00
29331;BME280;16331;52.528;13.342;2022-09-29T05:05:10;158557.19;;;10.36;100.00
29331;BME280;16331;52.528;13.342;2022-09-29T05:07:37;158573.63;;;10.42;100.00
29331;BME280;16331;52.528;13.342;2022-09-29T05:10:05;158581.91;;;10.45;100.00
29331;BME280;16331;52.528;13.342;2022-09-29T05:12:32;158570.91;;;10.41;100.00
29331;BME280;16331;52.528;13.342;2022-09-29T05:14:58;158596.97;;;10.51;100.00
29331;BME280;16331;52.528;13.342;2022-09-29T05:17:28;158576.41;;;10.43;100.00
29331;BME280;16331;52.528;13.342;2022-09-29T05:19:56;158598.34;;;10.51;100.00
29331;BME280;16331;52.528;13.342;2022-09-29T05:22:22;158636.75;;;10.65;100.00
29331;BME280;16331;52.528;13.342;2022-09-29T05:24:51;158591.47;;;10.49;100.00
29331;BME280;16331;52.528;13.342;2022-09-29T05:27:19;158601.09;;;10.52;100.00
29331;BME280;16331;52.528;13.342;2022-09-29T05:29:48;158605.19;;;10.54;100.00
29331;BME280;16331;52.528;13.342;2022-09-29T05:32:15;158623.03;;;10.60;100.00
29331;BME280;16331;52.528;13.342;2022-09-29T05:34:41;158614.81;;;10.57;100.00
29331;BME280;16331;52.528;13.342;2022-09-29T05:37:07;158605.19;;;10.54;100.00
29331;BME280;16331;52.528;13.342;2022-09-29T05:39:36;158606.59;;;10.54;100.00
29331;BME280;16331;52.528;13.342;2022-09-29T05:42:08;158623.03;;;10.60;100.00
29331;BME280;16331;52.528;13.342;2022-09-29T05:44:35;158635.38;;;10.65;100.00
29331;BME280;16331;52.528;13.342;2022-09-29T05:47:02;158693.00;;;10.86;100.00
29331;BME280;16331;52.528;13.342;2022-09-29T05:49:30;158745.16;;;11.05;100.00
29331;BME280;16331;52.528;13.342;2022-09-29T05:52:00;158713.56;;;10.93;100.00
29331;BME280;16331;52.528;13.342;2022-09-29T05:54:26;158671.06;;;10.78;100.00
29331;BME280;16331;52.528;13.342;2022-09-29T05:56:54;158734.19;;;11.01;100.00
29331;BME280;16331;52.528;13.342;2022-09-29T05:59:23;158672.44;;;10.78;100.00
29331;BME280;16331;52.528;13.342;2022-09-29T06:01:59;158664.22;;;10.75;100.00
29331;BME280;16331;52.528;13.342;2022-09-29T06:07:10;158761.63;;;11.11;100.00
29331;BME280;16331;52.528;13.342;2022-09-29T06:09:37;158817.94;;;11.31;100.00
29331;BME280;16331;52.528;13.342;2022-09-29T06:12:04;158806.94;;;11.27;100.00
29331;BME280;16331;52.528;13.342;2022-09-29T06:14:31;158842.63;;;11.40;100.00
29331;BME280;16331;52.528;13.342;2022-09-29T06:16:57;158798.69;;;11.24;100.00
29331;BME280;16331;52.528;13.342;2022-09-29T06:19:24;158783.56;;;11.19;100.00
29331;BME280;16331;52.528;13.342;2022-09-29T06:21:51;158831.63;;;11.36;100.00
29331;BME280;16331;52.528;13.342;2022-09-29T06:24:17;158815.16;;;11.30;100.00
29331;BME280;16331;52.528;13.342;2022-09-29T06:26:43;158779.47;;;11.17;100.00
29331;BME280;16331;52.528;13.342;2022-09-29T06:29:09;158763.00;;;11.11;100.00
29331;BME280;16331;52.528;13.342;2022-09-29T06:31:35;158789.06;;;11.21;100.00
29331;BME280;16331;52.528;13.342;2022-09-29T06:34:03;158795.97;;;11.23;100.00
29331;BME280;16331;52.528;13.342;2022-09-29T06:36:41;158816.56;;;11.31;100.00
29331;BME280;16331;52.528;13.342;2022-09-29T06:39:28;158787.75;;;11.20;100.00
29331;BME280;16331;52.528;13.342;2022-09-29T06:41:54;158813.81;;;11.30;100.00
29331;BME280;16331;52.528;13.342;2022-09-29T06:44:25;158853.59;;;11.44;100.00
29331;BME280;16331;52.528;13.342;2022-09-29T06:46:51;158875.56;;;11.52;100.00
29331;BME280;16331;52.528;13.342;2022-09-29T06:49:23;158978.63;;;11.90;100.00
29331;BME280;16331;52.528;13.342;2022-09-29T06:51:50;158960.78;;;11.84;100.00
29331;BME280;16331;52.528;13.342;2022-09-29T06:54:18;158949.81;;;11.80;100.00
29331;BME280;16331;52.528;13.342;2022-09-29T06:56:52;158995.09;;;11.96;100.00
29331;BME280;16331;52.528;13.342;2022-09-29T06:59:19;159015.69;;;12.04;100.00
29331;BME280;16331;52.528;13.342;2022-09-29T07:01:45;159069.28;;;12.23;100.00
29331;BME280;16331;52.528;13.342;2022-09-29T07:04:14;159026.72;;;12.08;100.00
29331;BME280;16331;52.528;13.342;2022-09-29T07:06:41;159014.38;;;12.03;100.00
29331;BME280;16331;52.528;13.342;2022-09-29T07:09:07;159021.19;;;12.06;100.00
29331;BME280;16331;52.528;13.342;2022-09-29T07:11:35;159040.47;;;12.13;100.00
29331;BME280;16331;52.528;13.342;2022-09-29T07:14:03;158947.03;;;11.79;100.00
29331;BME280;16331;52.528;13.342;2022-09-29T07:16:32;158970.41;;;11.87;100.00
29331;BME280;16331;52.528;13.342;2022-09-29T07:18:58;158969.00;;;11.87;100.00
29331;BME280;16331;52.528;13.342;2022-09-29T07:21:24;158931.97;;;11.73;100.00
29331;BME280;16331;52.528;13.342;2022-09-29T07:23:50;159015.69;;;12.04;100.00
29331;BME280;16331;52.528;13.342;2022-09-29T07:26:17;159017.09;;;12.04;100.00
29331;BME280;16331;52.528;13.342;2022-09-29T07:28:44;159077.53;;;12.26;100.00
29331;BME280;16331;52.528;13.342;2022-09-29T07:31:13;159076.19;;;12.26;100.00
29331;BME280;16331;52.528;13.342;2022-09-29T07:33:40;159044.56;;;12.14;100.00
29331;BME280;16331;52.528;13.342;2022-09-29T07:36:06;159010.25;;;12.02;100.00
29331;BME280;16331;52.528;13.342;2022-09-29T07:38:32;159076.19;;;12.26;100.00
29331;BME280;16331;52.528;13.342;2022-09-29T07:41:02;159114.66;;;12.40;100.00
29331;BME280;16331;52.528;13.342;2022-09-29T07:43:29;159096.78;;;12.33;100.00
29331;BME280;16331;52.528;13.342;2022-09-29T07:45:56;159087.16;;;12.30;100.00
29331;BME280;16331;52.528;13.342;2022-09-29T07:48:22;159012.97;;;12.03;100.00
29331;BME280;16331;52.528;13.342;2022-09-29T07:50:48;159125.63;;;12.44;100.00
29331;BME280;16331;52.528;13.342;2022-09-29T07:53:14;159062.44;;;12.21;100.00
29331;BME280;16331;52.528;13.342;2022-09-29T07:55:40;159045.97;;;12.15;100.00
29331;BME280;16331;52.528;13.342;2022-09-29T07:58:07;159056.94;;;12.19;100.00
29331;BME280;16331;52.528;13.342;2022-09-29T08:00:33;159024.00;;;12.07;100.00
29331;BME280;16331;52.528;13.342;2022-09-29T08:03:01;159062.44;;;12.21;100.00
29331;BME280;16331;52.528;13.342;2022-09-29T08:05:29;159076.19;;;12.26;100.00
29331;BME280;16331;52.528;13.342;2022-09-29T08:08:01;159024.00;;;12.07;100.00
29331;BME280;16331;52.528;13.342;2022-09-29T08:10:30;159058.31;;;12.19;100.00
29331;BME280;16331;52.528;13.342;2022-09-29T08:12:57;159019.88;;;12.05;100.00
29331;BME280;16331;52.528;13.342;2022-09-29T08:15:23;159133.91;;;12.47;100.00
29331;BME280;16331;52.528;13.342;2022-09-29T08:17:52;159213.59;;;12.76;100.00
29331;BME280;16331;52.528;13.342;2022-09-29T08:20:19;159223.22;;;12.79;100.00
29331;BME280;16331;52.528;13.342;2022-09-29T08:22:45;159265.81;;;12.95;100.00
29331;BME280;16331;52.528;13.342;2022-09-29T08:25:13;159221.81;;;12.79;100.00
29331;BME280;16331;52.528;13.342;2022-09-29T08:27:40;159263.09;;;12.94;100.00
29331;BME280;16331;52.528;13.342;2022-09-29T08:30:06;159260.34;;;12.93;100.00
29331;BME280;16331;52.528;13.342;2022-09-29T08:32:33;159287.88;;;13.03;100.00
29331;BME280;16331;52.528;13.342;2022-09-29T08:34:59;159312.66;;;13.12;100.00
29331;BME280;16331;52.528;13.342;2022-09-29T08:37:28;159348.41;;;13.25;100.00
29331;BME280;16331;52.528;13.342;2022-09-29T08:39:56;159430.94;;;13.55;100.00
29331;BME280;16331;52.528;13.342;2022-09-29T08:45:43;159381.41;;;13.37;100.00
29331;BME280;16331;52.528;13.342;2022-09-29T08:48:18;159469.44;;;13.69;100.00
29331;BME280;16331;52.528;13.342;2022-09-29T08:51:20;159466.69;;;13.68;100.00
29331;BME280;16331;52.528;13.342;2022-09-29T08:53:52;159546.47;;;13.97;100.00
29331;BME280;16331;52.528;13.342;2022-09-29T08:56:21;159440.56;;;13.59;100.00
29331;BME280;16331;52.528;13.342;2022-09-29T08:58:50;159275.44;;;12.98;100.00
29331;BME280;16331;52.528;13.342;2022-09-29T09:07:06;159470.84;;;13.70;100.00
29331;BME280;16331;52.528;13.342;2022-09-29T09:18:21;159521.72;;;13.88;100.00
29331;BME280;16331;52.528;13.342;2022-09-29T09:26:26;159848.06;;;15.07;100.00
29331;BME280;16331;52.528;13.342;2022-09-29T09:29:31;159834.28;;;15.02;100.00
29331;BME280;16331;52.528;13.342;2022-09-29T09:32:21;159894.88;;;15.24;100.00
29331;BME280;16331;52.528;13.342;2022-09-29T09:34:59;159835.69;;;15.03;100.00
29331;BME280;16331;52.528;13.342;2022-09-29T09:37:35;159819.09;;;14.97;100.00
29331;BME280;16331;52.528;13.342;2022-09-29T09:40:20;159764.03;;;14.77;100.00
29331;BME280;16331;52.528;13.342;2022-09-29T09:43:12;159912.78;;;15.31;100.00
29331;BME280;16331;52.528;13.342;2022-09-29T09:45:51;159922.44;;;15.34;100.00
29331;BME280;16331;52.528;13.342;2022-09-29T09:48:40;159888.00;;;15.22;100.00
29331;BME280;16331;52.528;13.342;2022-09-29T09:51:23;159944.53;;;15.42;100.00
29331;BME280;16331;52.528;13.342;2022-09-29T09:53:54;159819.09;;;14.97;100.00
29331;BME280;16331;52.528;13.342;2022-09-29T10:02:20;159747.53;;;14.71;100.00
29331;BME280;16331;52.528;13.342;2022-09-29T10:04:51;159656.63;;;14.37;100.00
29331;BME280;16331;52.528;13.342;2022-09-29T10:07:38;159626.34;;;14.26;100.00
29331;BME280;16331;52.528;13.342;2022-09-29T10:10:19;159762.66;;;14.76;100.00
29331;BME280;16331;52.528;13.342;2022-09-29T10:12:57;159783.34;;;14.84;100.00
29331;BME280;16331;52.528;13.342;2022-09-29T10:18:42;159805.38;;;14.92;100.00
29331;BME280;16331;52.528;13.342;2022-09-29T10:23:55;159882.50;;;15.20;100.00
29331;BME280;16331;52.528;13.342;2022-09-29T10:26:43;159837.00;;;15.03;100.00
29331;BME280;16331;52.528;13.342;2022-09-29T10:29:36;159899.00;;;15.26;100.00
29331;BME280;16331;52.528;13.342;2022-09-29T10:34:53;160020.34;;;15.70;100.00
29331;BME280;16331;52.528;13.342;2022-09-29T10:37:41;159985.84;;;15.57;100.00
29331;BME280;16331;52.528;13.342;2022-09-29T10:42:38;160160.94;;;16.21;100.00
29331;BME280;16331;52.528;13.342;2022-09-29T10:45:24;160355.44;;;16.92;100.00
29331;BME280;16331;52.528;13.342;2022-09-29T10:50:27;160309.94;;;16.75;95.12
29331;BME280;16331;52.528;13.342;2022-09-29T10:53:05;160322.34;;;16.80;96.35
29331;BME280;16331;52.528;13.342;2022-09-29T10:55:34;160194.00;;;16.33;100.00
29331;BME280;16331;52.528;13.342;2022-09-29T10:58:15;160147.16;;;16.16;100.00
29331;BME280;16331;52.528;13.342;2022-09-29T11:00:45;159995.50;;;15.61;100.00
29331;BME280;16331;52.528;13.342;2022-09-29T11:03:25;159974.84;;;15.53;100.00
29331;BME280;16331;52.528;13.342;2022-09-29T11:06:05;160020.34;;;15.70;100.00
29331;BME280;16331;52.528;13.342;2022-09-29T11:08:32;159939.03;;;15.40;100.00
29331;BME280;16331;52.528;13.342;2022-09-29T11:11:20;159857.72;;;15.11;100.00
29331;BME280;16331;52.528;13.342;2022-09-29T11:13:49;159992.78;;;15.60;100.00
29331;BME280;16331;52.528;13.342;2022-09-29T11:16:24;160042.41;;;15.78;100.00
29331;BME280;16331;52.528;13.342;2022-09-29T11:24:39;159974.84;;;15.53;100.00
29331;BME280;16331;52.528;13.342;2022-09-29T11:30:13;159966.59;;;15.50;100.00
29331;BME280;16331;52.528;13.342;2022-09-29T11:36:00;159948.69;;;15.44;100.00
29331;BME280;16331;52.528;13.342;2022-09-29T11:53:26;159995.50;;;15.61;96.01
29331;BME280;16331;52.528;13.342;2022-09-29T11:56:23;160089.25;;;15.95;95.59
29331;BME280;16331;52.528;13.342;2022-09-29T12:04:37;160159.56;;;16.21;87.26
29331;BME280;16331;52.528;13.342;2022-09-29T12:10:22;160089.25;;;15.95;97.80
29331;BME280;16331;52.528;13.342;2022-09-29T12:15:55;160042.41;;;15.78;89.63
29331;BME280;16331;52.528;13.342;2022-09-29T12:21:54;160283.72;;;16.66;84.31
29331;BME280;16331;52.528;13.342;2022-09-29T12:24:41;160271.31;;;16.61;80.69
29331;BME280;16331;52.528;13.342;2022-09-29T12:27:25;160263.00;;;16.58;81.87
29331;BME280;16331;52.528;13.342;2022-09-29T12:30:14;160377.50;;;17.00;77.97
29331;BME280;16331;52.528;13.342;2022-09-29T12:32:48;160429.97;;;17.19;80.18
29331;BME280;16331;52.528;13.342;2022-09-29T12:35:45;160337.53;;;16.85;78.14
29331;BME280;16331;52.528;13.342;2022-09-29T12:38:38;160258.88;;;16.57;79.41
29331;BME280;16331;52.528;13.342;2022-09-29T12:43:59;161082.13;;;19.56;64.40
29331;BME280;16331;52.528;13.342;2022-09-29T12:46:36;161711.94;;;21.84;55.21
29331;BME280;16331;52.528;13.342;2022-09-29T12:56:42;160646.72;;;17.98;68.10
29331;BME280;16331;52.528;13.342;2022-09-29T12:59:21;160438.25;;;17.22;71.95
29331;BME280;16331;52.528;13.342;2022-09-29T13:01:58;160436.84;;;17.21;74.82
29331;BME280;16331;52.528;13.342;2022-09-29T13:05:02;160326.47;;;16.81;77.61
29331;BME280;16331;52.528;13.342;2022-09-29T13:10:21;160315.47;;;16.77;79.80
29331;BME280;16331;52.528;13.342;2022-09-29T13:13:38;160305.81;;;16.74;82.60
29331;BME280;16331;52.528;13.342;2022-09-29T13:22:39;160138.88;;;16.13;86.01
29331;BME280;16331;52.528;13.342;2022-09-29T13:27:29;160079.59;;;15.91;87.01
29331;BME280;16331;52.528;13.342;2022-09-29T13:30:15;160114.03;;;16.04;87.57
29331;BME280;16331;52.528;13.342;2022-09-29T13:32:45;160108.56;;;16.02;87.80
29331;BME280;16331;52.528;13.342;2022-09-29T13:35:21;159983.13;;;15.56;92.56
29331;BME280;16331;52.528;13.342;2022-09-29T13:38:01;160020.34;;;15.70;94.16
29331;BME280;16331;52.528;13.342;2022-09-29T13:40:29;160170.56;;;16.25;91.77
29331;BME280;16331;52.528;13.342;2022-09-29T13:42:57;160207.81;;;16.38;89.41
29331;BME280;16331;52.528;13.342;2022-09-29T13:47:52;160138.88;;;16.13;93.75
29331;BME280;16331;52.528;13.342;2022-09-29T13:50:44;160423.06;;;17.16;85.86
29331;BME280;16331;52.528;13.342;2022-09-29T13:58:28;160443.72;;;17.24;77.43
29331;BME280;16331;52.528;13.342;2022-09-29T14:01:00;160453.41;;;17.27;77.45
29331;BME280;16331;52.528;13.342;2022-09-29T14:03:33;160527.97;;;17.55;75.15
29331;BME280;16331;52.528;13.342;2022-09-29T14:06:19;160533.50;;;17.57;74.50
29331;BME280;16331;52.528;13.342;2022-09-29T14:09:05;160563.88;;;17.68;74.24
29331;BME280;16331;52.528;13.342;2022-09-29T14:11:48;160627.41;;;17.91;74.50
29331;BME280;16331;52.528;13.342;2022-09-29T14:14:55;160630.16;;;17.92;71.52
29331;BME280;16331;52.528;13.342;2022-09-29T14:17:33;160751.66;;;18.36;69.01
29331;BME280;16331;52.528;13.342;2022-09-29T14:20:27;160562.47;;;17.67;70.04
29331;BME280;16331;52.528;13.342;2022-09-29T14:23:04;160303.00;;;16.73;78.67
29331;BME280;16331;52.528;13.342;2022-09-29T14:25:48;160686.75;;;18.12;70.28
29331;BME280;16331;52.528;13.342;2022-09-29T14:28:41;160581.84;;;17.74;72.43
29331;BME280;16331;52.528;13.342;2022-09-29T14:31:17;160641.22;;;17.96;72.15
29331;BME280;16331;52.528;13.342;2022-09-29T14:33:45;160605.31;;;17.83;68.11
29331;BME280;16331;52.528;13.342;2022-09-29T14:36:17;160536.25;;;17.58;62.74
29331;BME280;16331;52.528;13.342;2022-09-29T14:38:46;160387.16;;;17.03;64.13
29331;BME280;16331;52.528;13.342;2022-09-29T14:41:21;160333.34;;;16.84;67.09
29331;BME280;16331;52.528;13.342;2022-09-29T14:43:55;160389.97;;;17.04;67.37
29331;BME280;16331;52.528;13.342;2022-09-29T14:49:28;160349.94;;;16.90;63.00
29331;BME280;16331;52.528;13.342;2022-09-29T14:55:20;160283.72;;;16.66;64.99
29331;BME280;16331;52.528;13.342;2022-09-29T14:58:12;160246.47;;;16.52;67.54
29331;BME280;16331;52.528;13.342;2022-09-29T15:01:08;160239.59;;;16.50;68.60
29331;BME280;16331;52.528;13.342;2022-09-29T15:03:51;160282.34;;;16.65;68.19
29331;BME280;16331;52.528;13.342;2022-09-29T15:06:26;160298.88;;;16.71;67.90
29331;BME280;16331;52.528;13.342;2022-09-29T15:09:00;160279.59;;;16.64;68.47
29331;BME280;16331;52.528;13.342;2022-09-29T15:11:34;160125.09;;;16.08;72.86
29331;BME280;16331;52.528;13.342;2022-09-29T15:17:04;160187.16;;;16.31;75.20
29331;BME280;16331;52.528;13.342;2022-09-29T15:25:37;160192.63;;;16.33;76.81
29331;BME280;16331;52.528;13.342;2022-09-29T15:28:31;160163.69;;;16.22;76.97
29331;BME280;16331;52.528;13.342;2022-09-29T15:31:04;160211.94;;;16.40;75.89
29331;BME280;16331;52.528;13.342;2022-09-29T15:33:36;160177.47;;;16.27;74.97
29331;BME280;16331;52.528;13.342;2022-09-29T15:36:05;160223.00;;;16.44;74.53